createdAt,value
2019-04-03T00:00:12.333Z,8.97
2019-04-03T00:02:41.615Z,8.28
2019-04-03T00:05:10.972Z,8.08
2019-04-03T00:07:40.143Z,8.06
2019-04-03T00:10:09.672Z,7.89
2019-04-03T00:12:40.671Z,7.96
2019-04-03T00:15:09.851Z,7.71
2019-04-03T00:17:39.029Z,7.62
2019-04-03T00:20:08.543Z,7.66
2019-04-03T00:22:40.431Z,7.70
2019-04-03T00:25:09.579Z,7.94
2019-04-03T00:27:38.828Z,7.75
2019-04-03T00:30:09.095Z,7.78
2019-04-03T00:32:38.294Z,7.69
2019-04-03T00:35:08.148Z,7.75
2019-04-03T00:37:37.651Z,7.72
2019-04-03T00:40:07.507Z,7.90
2019-04-03T00:42:36.714Z,7.65
2019-04-03T00:45:07.035Z,7.82
2019-04-03T00:47:36.264Z,7.79
2019-04-03T00:50:07.658Z,7.56
2019-04-03T00:52:36.827Z,7.38
2019-04-03T00:55:06.567Z,7.37
2019-04-03T00:57:35.733Z,7.28
2019-04-03T01:00:13.828Z,7.28
2019-04-03T01:02:43.574Z,7.51
2019-04-03T01:05:13.260Z,7.67
2019-04-03T01:07:42.436Z,7.72
2019-04-03T01:10:11.845Z,7.43
2019-04-03T01:12:41.100Z,7.47
2019-04-03T01:15:10.634Z,7.45
2019-04-03T01:17:39.849Z,7.42
2019-04-03T01:20:09.988Z,7.24
2019-04-03T01:22:39.118Z,7.16
2019-04-03T01:25:09.253Z,7.28
2019-04-03T01:27:41.098Z,7.29
2019-04-03T01:30:09.471Z,7.53
2019-04-03T01:32:38.681Z,7.34
2019-04-03T01:35:09.162Z,7.37
2019-04-03T01:37:38.921Z,7.45
2019-04-03T01:40:08.114Z,7.67
2019-04-03T01:42:37.308Z,7.55
2019-04-03T01:45:06.920Z,7.31
2019-04-03T01:47:36.088Z,7.30
2019-04-03T01:50:06.674Z,7.29
2019-04-03T01:52:35.867Z,7.16
2019-04-03T01:55:06.212Z,7.12
2019-04-03T01:57:36.800Z,7.10
2019-04-03T02:00:08.182Z,7.20
2019-04-03T02:02:38.622Z,7.16
2019-04-03T02:05:08.865Z,7.09
2019-04-03T02:07:40.907Z,7.09
2019-04-03T02:10:19.152Z,7.04
2019-04-03T02:12:50.390Z,6.92
2019-04-03T02:15:21.176Z,6.99
2019-04-03T02:17:50.362Z,6.89
2019-04-03T02:20:19.679Z,6.99
2019-04-03T02:22:49.259Z,6.98
2019-04-03T02:25:18.453Z,7.16
2019-04-03T02:27:47.652Z,7.20
2019-04-03T02:30:17.253Z,7.09
2019-04-03T02:32:46.439Z,7.19
2019-04-03T02:35:15.871Z,7.26
2019-04-03T02:37:48.693Z,7.13
2019-04-03T02:40:15.992Z,7.28
2019-04-03T02:42:45.196Z,7.29
2019-04-03T02:45:15.414Z,7.27
2019-04-03T02:47:44.689Z,7.28
2019-04-03T02:50:16.911Z,7.17
2019-04-03T02:52:46.243Z,7.33
2019-04-03T02:55:15.756Z,7.48
2019-04-03T02:57:48.473Z,7.42
2019-04-03T03:00:16.065Z,7.41
2019-04-03T03:02:46.129Z,7.63
2019-04-03T03:05:15.523Z,7.68
2019-04-03T03:07:44.729Z,7.25
2019-04-03T03:10:14.087Z,7.06
2019-04-03T03:12:44.442Z,7.13
2019-04-03T03:15:13.696Z,7.25
2019-04-03T03:17:43.117Z,7.33
2019-04-03T03:20:12.867Z,7.25
2019-04-03T03:22:42.515Z,7.27
2019-04-03T03:25:12.468Z,7.41
2019-04-03T03:27:43.206Z,7.31
2019-04-03T03:30:33.414Z,7.07
2019-04-03T03:32:44.203Z,7.02
2019-04-03T03:35:18.228Z,6.99
2019-04-03T03:37:45.589Z,6.90
2019-04-03T03:40:16.183Z,6.86
2019-04-03T03:42:46.145Z,6.89
2019-04-03T03:45:19.502Z,6.87
2019-04-03T03:47:49.397Z,6.93
2019-04-03T03:50:24.147Z,6.84
2019-04-03T03:52:54.432Z,6.89
2019-04-03T03:55:25.665Z,6.86
2019-04-03T03:57:57.609Z,6.71
2019-04-03T04:00:26.856Z,6.77
2019-04-03T04:02:58.740Z,6.62
2019-04-03T04:05:28.389Z,6.75
2019-04-03T04:07:57.872Z,6.75
2019-04-03T04:10:28.800Z,6.63
2019-04-03T04:12:59.037Z,6.54
2019-04-03T04:15:30.229Z,6.64
2019-04-03T04:17:59.656Z,6.58
2019-04-03T04:20:29.358Z,6.62
2019-04-03T04:22:59.927Z,6.68
2019-04-03T04:25:30.582Z,6.69
2019-04-03T04:28:00.600Z,6.71
2019-04-03T04:30:30.514Z,6.85
2019-04-03T04:32:59.872Z,6.75
2019-04-03T04:35:29.176Z,6.61
2019-04-03T04:37:58.545Z,6.45
2019-04-03T04:40:30.350Z,6.52
2019-04-03T04:42:58.694Z,6.71
2019-04-03T04:45:28.127Z,6.82
2019-04-03T04:47:58.088Z,6.83
2019-04-03T04:50:27.462Z,6.72
2019-04-03T04:52:58.634Z,6.79
2019-04-03T04:55:30.408Z,6.78
2019-04-03T04:57:58.954Z,6.66
2019-04-03T05:00:29.906Z,6.59
2019-04-03T05:03:01.282Z,6.48
2019-04-03T05:05:31.082Z,6.49
2019-04-03T05:08:02.214Z,6.52
2019-04-03T05:10:49.729Z,6.46
2019-04-03T05:13:19.186Z,6.50
2019-04-03T05:15:48.524Z,6.42
2019-04-03T05:18:17.779Z,6.50
2019-04-03T05:20:47.072Z,6.53
2019-04-03T05:23:16.525Z,6.57
2019-04-03T05:25:45.853Z,6.68
2019-04-03T05:28:15.108Z,6.63
2019-04-03T05:30:44.334Z,6.64
2019-04-03T05:33:13.544Z,6.60
2019-04-03T05:35:45.323Z,6.58
2019-04-03T05:38:13.588Z,6.42
2019-04-03T05:40:42.788Z,6.48
2019-04-03T05:43:11.974Z,6.45
2019-04-03T05:45:42.235Z,6.34
2019-04-03T05:48:13.386Z,6.29
2019-04-03T05:50:42.447Z,6.38
2019-04-03T05:53:11.707Z,6.35
2019-04-03T05:55:41.464Z,6.34
2019-04-03T05:58:11.201Z,6.32
2019-04-03T06:00:40.397Z,6.41
2019-04-03T06:03:10.020Z,6.45
2019-04-03T06:05:39.212Z,6.39
2019-04-03T06:08:08.411Z,6.51
2019-04-03T06:10:37.701Z,6.52
2019-04-03T06:13:06.919Z,6.65
2019-04-03T06:15:36.368Z,6.61
2019-04-03T06:18:06.077Z,6.61
2019-04-03T06:20:35.321Z,6.75
2019-04-03T06:23:04.523Z,6.73
2019-04-03T06:25:33.783Z,6.97
2019-04-03T06:28:02.947Z,7.03
2019-04-03T06:30:33.230Z,7.05
2019-04-03T06:33:02.681Z,7.13
2019-04-03T06:35:34.377Z,7.13
2019-04-03T06:38:02.914Z,7.32
2019-04-03T06:40:33.650Z,7.27
2019-04-03T06:43:03.074Z,7.39
2019-04-03T06:45:32.221Z,7.48
2019-04-03T06:48:04.253Z,7.56
2019-04-03T06:50:32.252Z,7.84
2019-04-03T06:53:01.677Z,7.80
2019-04-03T06:55:31.232Z,7.93
2019-04-03T06:58:00.890Z,8.11
2019-04-03T07:00:30.249Z,8.32
2019-04-03T07:03:01.485Z,8.95
2019-04-03T07:05:31.987Z,9.64
2019-04-03T07:08:01.429Z,10.32
2019-04-03T07:10:31.995Z,11.20
2019-04-03T07:13:01.176Z,11.05
2019-04-03T07:15:30.498Z,10.85
2019-04-03T07:18:01.363Z,10.85
2019-04-03T07:20:30.825Z,10.14
2019-04-03T07:22:59.990Z,9.93
2019-04-03T07:25:29.260Z,9.48
2019-04-03T07:27:58.730Z,9.48
2019-04-03T07:30:27.928Z,8.92
2019-04-03T07:32:58.306Z,8.92
2019-04-03T07:35:27.651Z,8.70
2019-04-03T07:37:56.914Z,8.76
2019-04-03T07:40:26.077Z,9.12
2019-04-03T07:42:56.442Z,8.65
2019-04-03T07:45:26.041Z,9.00
2019-04-03T07:47:55.238Z,9.31
2019-04-03T07:50:24.476Z,8.77
2019-04-03T07:52:53.645Z,8.57
2019-04-03T07:55:24.229Z,8.67
2019-04-03T07:57:53.718Z,8.50
2019-04-03T08:00:23.454Z,8.28
2019-04-03T08:02:52.640Z,8.32
2019-04-03T08:05:22.214Z,8.40
2019-04-03T08:07:51.760Z,9.77
2019-04-03T08:10:20.967Z,9.44
2019-04-03T08:12:50.142Z,9.11
2019-04-03T08:15:19.345Z,8.70
2019-04-03T08:17:50.010Z,8.62
2019-04-03T08:20:20.237Z,8.76
2019-04-03T08:22:49.834Z,8.47
2019-04-03T08:25:19.002Z,7.90
2019-04-03T08:27:48.234Z,7.79
2019-04-03T08:30:17.888Z,8.00
2019-04-03T08:32:48.167Z,7.77
2019-04-03T08:35:22.137Z,7.90
2019-04-03T08:37:49.016Z,8.18
2019-04-03T08:40:20.686Z,8.17
2019-04-03T08:42:49.062Z,8.34
2019-04-03T08:45:20.961Z,8.73
2019-04-03T08:47:49.111Z,8.98
2019-04-03T08:50:18.441Z,9.30
2019-04-03T08:52:47.638Z,9.90
2019-04-03T08:55:17.135Z,9.66
2019-04-03T08:57:46.905Z,9.64
2019-04-03T09:00:18.413Z,9.92
2019-04-03T09:02:47.622Z,10.24
2019-04-03T09:05:19.432Z,9.86
2019-04-03T09:07:47.914Z,9.65
2019-04-03T09:10:17.934Z,9.84
2019-04-03T09:12:47.173Z,9.68
2019-04-03T09:15:16.946Z,9.57
2019-04-03T09:17:46.093Z,9.24
2019-04-03T09:20:16.362Z,9.38
2019-04-03T09:22:45.812Z,9.38
2019-04-03T09:25:15.392Z,9.46
2019-04-03T09:27:44.612Z,9.42
2019-04-03T09:30:16.155Z,9.55
2019-04-03T09:32:45.520Z,9.52
2019-04-03T09:35:15.157Z,9.35
2019-04-03T09:37:46.052Z,9.35
2019-04-03T09:40:17.227Z,9.42
2019-04-03T09:42:46.326Z,9.28
2019-04-03T09:45:15.859Z,9.18
2019-04-03T09:47:45.067Z,9.21
2019-04-03T09:50:14.963Z,9.10
2019-04-03T09:52:49.095Z,9.17
2019-04-03T09:55:15.533Z,8.87
2019-04-03T09:57:44.692Z,9.06
2019-04-03T10:00:14.742Z,9.10
2019-04-03T10:02:44.288Z,9.19
2019-04-03T10:05:15.241Z,9.15
2019-04-03T10:07:44.485Z,9.35
2019-04-03T10:10:16.521Z,9.17
2019-04-03T10:12:47.952Z,9.53
2019-04-03T10:15:18.905Z,9.76
2019-04-03T10:17:48.754Z,9.44
2019-04-03T10:20:19.071Z,9.43
2019-04-03T10:22:48.587Z,9.60
2019-04-03T10:25:19.813Z,9.59
2019-04-03T10:27:49.992Z,9.57
2019-04-03T10:30:22.131Z,9.69
2019-04-03T10:32:52.581Z,9.77
2019-04-03T10:35:22.744Z,9.67
2019-04-03T10:37:51.954Z,9.62
2019-04-03T10:40:23.644Z,9.66
2019-04-03T10:42:52.298Z,9.40
2019-04-03T10:45:21.614Z,9.36
2019-04-03T10:47:50.781Z,9.49
2019-04-03T10:50:20.128Z,9.66
2019-04-03T10:52:49.410Z,9.79
2019-04-03T10:55:19.537Z,9.81
2019-04-03T10:57:48.708Z,9.67
2019-04-03T11:00:18.796Z,9.60
2019-04-03T11:02:48.153Z,9.70
2019-04-03T11:05:17.674Z,9.64
2019-04-03T11:07:46.977Z,9.43
2019-04-03T11:10:16.830Z,9.40
2019-04-03T11:12:46.008Z,9.69
2019-04-03T11:15:17.006Z,9.55
2019-04-03T11:17:48.498Z,9.42
2019-04-03T11:20:17.348Z,9.45
2019-04-03T11:22:48.311Z,9.55
2019-04-03T11:25:17.459Z,9.67
2019-04-03T11:27:46.623Z,9.43
2019-04-03T11:30:21.586Z,9.31
2019-04-03T11:32:48.255Z,8.37
2019-04-03T11:35:20.826Z,8.15
2019-04-03T11:37:48.517Z,7.87
2019-04-03T11:40:18.810Z,7.72
2019-04-03T11:42:49.075Z,7.99
2019-04-03T11:45:19.389Z,8.11
2019-04-03T11:47:48.542Z,8.39
2019-04-03T11:50:19.783Z,8.54
2019-04-03T11:52:51.278Z,8.56
2019-04-03T11:55:19.909Z,8.14
2019-04-03T11:57:49.891Z,8.20
2019-04-03T12:00:24.616Z,8.33
2019-04-03T12:02:53.806Z,7.86
2019-04-03T12:05:23.078Z,8.11
2019-04-03T12:07:52.270Z,8.14
2019-04-03T12:10:21.486Z,8.10
2019-04-03T12:12:51.618Z,8.21
2019-04-03T12:15:22.008Z,8.35
2019-04-03T12:17:51.859Z,8.44
2019-04-03T12:20:21.037Z,8.33
2019-04-03T12:22:50.217Z,8.17
2019-04-03T12:25:19.423Z,8.40
2019-04-03T12:27:48.885Z,8.56
2019-04-03T12:30:19.414Z,8.73
2019-04-03T12:32:50.181Z,8.74
2019-04-03T12:35:19.685Z,8.88
2019-04-03T12:37:50.189Z,8.79
2019-04-03T12:40:20.511Z,8.68
2019-04-03T12:42:52.317Z,8.78
2019-04-03T12:45:21.644Z,9.08
2019-04-03T12:47:51.029Z,9.04
2019-04-03T12:50:20.543Z,9.00
2019-04-03T12:52:50.704Z,9.10
2019-04-03T12:55:19.981Z,9.33
2019-04-03T12:57:49.520Z,9.37
2019-04-03T13:00:19.700Z,9.54
2019-04-03T13:02:51.260Z,9.78
2019-04-03T13:05:19.835Z,9.66
2019-04-03T13:07:48.983Z,9.59
2019-04-03T13:10:18.427Z,9.75
2019-04-03T13:12:48.128Z,9.97
2019-04-03T13:15:18.456Z,10.01
2019-04-03T13:17:47.846Z,9.78
2019-04-03T13:20:17.072Z,9.72
2019-04-03T13:22:46.235Z,9.73
2019-04-03T13:25:16.184Z,9.59
2019-04-03T13:27:45.401Z,9.78
2019-04-03T13:30:15.516Z,9.80
2019-04-03T13:32:56.775Z,9.98
2019-04-03T13:35:16.695Z,10.12
2019-04-03T13:37:46.355Z,10.03
2019-04-03T13:40:15.770Z,10.18
2019-04-03T13:42:47.561Z,10.14
2019-04-03T13:45:16.039Z,9.84
2019-04-03T13:47:47.048Z,9.83
2019-04-03T13:50:18.434Z,9.89
2019-04-03T13:52:49.796Z,9.88
2019-04-03T13:55:18.760Z,10.04
2019-04-03T13:57:49.470Z,9.99
2019-04-03T14:00:22.628Z,10.03
2019-04-03T14:02:49.989Z,10.30
2019-04-03T14:05:19.189Z,10.51
2019-04-03T14:07:48.373Z,10.73
2019-04-03T14:10:17.608Z,10.57
2019-04-03T14:12:48.973Z,10.55
2019-04-03T14:15:20.324Z,10.44
2019-04-03T14:17:56.409Z,10.56
2019-04-03T14:20:23.758Z,10.42
2019-04-03T14:22:52.560Z,10.02
2019-04-03T14:25:23.445Z,10.12
2019-04-03T14:27:52.632Z,10.04
2019-04-03T14:30:21.816Z,9.88
2019-04-03T14:32:53.411Z,10.16
2019-04-03T14:35:45.535Z,10.10
2019-04-03T14:37:52.736Z,9.84
2019-04-03T14:40:21.895Z,9.86
2019-04-03T14:42:53.014Z,10.01
2019-04-03T14:45:22.201Z,10.06
2019-04-03T14:47:54.227Z,10.28
2019-04-03T14:50:23.582Z,10.31
2019-04-03T14:52:52.758Z,10.59
2019-04-03T14:55:23.534Z,10.71
2019-04-03T14:57:55.484Z,10.71
2019-04-03T15:00:28.896Z,10.57
2019-04-03T15:02:56.173Z,10.65
2019-04-03T15:05:26.818Z,10.65
2019-04-03T15:07:56.106Z,10.58
2019-04-03T15:10:25.249Z,10.74
2019-04-03T15:12:54.712Z,10.71
2019-04-03T15:15:24.785Z,10.71
2019-04-03T15:17:54.937Z,10.85
2019-04-03T15:20:24.220Z,10.79
2019-04-03T15:22:53.342Z,10.78
2019-04-03T15:25:22.637Z,10.98
2019-04-03T15:27:51.770Z,10.98
2019-04-03T15:30:21.640Z,10.88
2019-04-03T15:32:52.246Z,10.98
2019-04-03T15:35:22.215Z,11.10
2019-04-03T15:37:51.466Z,10.86
2019-04-03T15:40:20.816Z,10.86
2019-04-03T15:42:50.391Z,10.69
2019-04-03T15:45:20.047Z,10.69
2019-04-03T15:47:49.596Z,10.36
2019-04-03T15:50:18.910Z,10.25
2019-04-03T15:52:49.177Z,10.21
2019-04-03T15:55:23.802Z,10.15
2019-04-03T15:57:53.022Z,9.98
2019-04-03T16:00:23.600Z,9.93
2019-04-03T16:02:52.795Z,10.04
2019-04-03T16:05:22.229Z,9.99
2019-04-03T16:07:51.619Z,9.81
2019-04-03T16:10:23.225Z,9.74
2019-04-03T16:12:51.994Z,9.76
2019-04-03T16:15:22.751Z,9.79
2019-04-03T16:17:52.025Z,9.70
2019-04-03T16:20:21.374Z,9.67
2019-04-03T16:22:50.551Z,9.62
2019-04-03T16:25:20.077Z,9.59
2019-04-03T16:27:49.727Z,9.67
2019-04-03T16:30:19.744Z,9.72
2019-04-03T16:32:48.976Z,9.68
2019-04-03T16:35:18.371Z,9.69
2019-04-03T16:37:49.677Z,9.63
2019-04-03T16:40:37.818Z,9.79
2019-04-03T16:43:07.195Z,9.91
2019-04-03T16:45:37.731Z,9.86
2019-04-03T16:48:07.590Z,9.91
2019-04-03T16:50:36.918Z,9.92
2019-04-03T16:53:07.471Z,9.96
2019-04-03T16:55:39.200Z,9.94
2019-04-03T16:58:08.432Z,9.96
2019-04-03T17:00:38.540Z,9.95
2019-04-03T17:03:08.545Z,9.84
2019-04-03T17:05:37.715Z,9.89
2019-04-03T17:08:06.877Z,9.79
2019-04-03T17:10:36.044Z,9.84
2019-04-03T17:13:06.141Z,9.78
2019-04-03T17:15:35.880Z,9.75
2019-04-03T17:18:05.134Z,9.57
2019-04-03T17:20:34.378Z,9.47
2019-04-03T17:23:03.553Z,9.51
2019-04-03T17:25:45.799Z,9.37
2019-04-03T17:28:09.173Z,9.47
2019-04-03T17:30:35.533Z,9.53
2019-04-03T17:33:04.771Z,9.45
2019-04-03T17:35:33.990Z,9.28
2019-04-03T17:38:03.188Z,9.38
2019-04-03T17:40:32.361Z,9.30
2019-04-03T17:43:02.676Z,9.30
2019-04-03T17:45:31.853Z,9.26
2019-04-03T17:48:01.033Z,9.22
2019-04-03T17:50:30.312Z,9.25
2019-04-03T17:52:59.495Z,9.30
2019-04-03T17:55:28.646Z,9.25
2019-04-03T17:57:57.817Z,9.35
2019-04-03T18:00:28.344Z,9.34
2019-04-03T18:02:57.503Z,9.24
2019-04-03T18:05:26.691Z,9.22
2019-04-03T18:07:58.635Z,9.18
2019-04-03T18:10:26.719Z,9.21
2019-04-03T18:12:56.374Z,9.29
2019-04-03T18:15:27.179Z,9.26
2019-04-03T18:17:56.394Z,9.28
2019-04-03T18:20:25.594Z,9.28
2019-04-03T18:22:54.789Z,9.26
2019-04-03T18:25:23.973Z,9.22
2019-04-03T18:27:56.023Z,9.14
2019-04-03T18:30:24.183Z,9.16
2019-04-03T18:32:53.484Z,9.16
2019-04-03T18:35:25.434Z,9.22
2019-04-03T18:37:53.530Z,9.26
2019-04-03T18:40:22.711Z,9.24
2019-04-03T18:42:51.891Z,9.24
2019-04-03T18:45:25.622Z,9.36
2019-04-03T18:47:51.941Z,8.46
2019-04-03T18:50:21.255Z,8.01
2019-04-03T18:52:50.599Z,7.95
2019-04-03T18:55:19.804Z,8.01
2019-04-03T18:57:50.255Z,8.10
2019-04-03T19:00:21.008Z,8.07
2019-04-03T19:02:50.195Z,8.23
2019-04-03T19:05:19.424Z,7.62
2019-04-03T19:07:48.641Z,7.78
2019-04-03T19:10:18.554Z,7.78
2019-04-03T19:12:47.906Z,7.90
2019-04-03T19:15:17.169Z,7.95
2019-04-03T19:17:58.935Z,8.14
2019-04-03T19:20:18.191Z,8.05
2019-04-03T19:22:47.299Z,8.05
2019-04-03T19:25:16.493Z,7.98
2019-04-03T19:27:45.688Z,7.70
2019-04-03T19:30:16.914Z,7.83
2019-04-03T19:32:46.092Z,7.59
2019-04-03T19:35:15.253Z,7.59
2019-04-03T19:37:45.248Z,7.60
2019-04-03T19:40:14.778Z,7.51
2019-04-03T19:42:44.446Z,7.53
2019-04-03T19:45:14.059Z,7.67
2019-04-03T19:47:43.222Z,7.55
2019-04-03T19:50:13.144Z,7.71
2019-04-03T19:52:42.550Z,7.74
2019-04-03T19:55:11.803Z,7.67
2019-04-03T19:57:40.975Z,7.73
2019-04-03T20:00:11.494Z,7.75
2019-04-03T20:02:43.134Z,7.72
2019-04-03T20:05:11.605Z,7.65
2019-04-03T20:07:40.771Z,7.49
2019-04-03T20:10:10.903Z,7.36
2019-04-03T20:12:40.995Z,7.55
2019-04-03T20:15:10.305Z,7.70
2019-04-03T20:17:39.527Z,7.78
2019-04-03T20:20:09.133Z,7.75
2019-04-03T20:22:42.156Z,7.44
2019-04-03T20:25:09.612Z,7.31
2019-04-03T20:27:38.924Z,7.61
2019-04-03T20:30:08.914Z,7.74
2019-04-03T20:32:40.249Z,7.56
2019-04-03T20:35:09.326Z,7.69
2019-04-03T20:37:38.492Z,7.61
2019-04-03T20:40:08.104Z,7.55
2019-04-03T20:42:40.616Z,7.50
2019-04-03T20:45:08.883Z,7.48
2019-04-03T20:47:39.005Z,7.34
2019-04-03T20:50:09.474Z,7.36
2019-04-03T20:52:38.646Z,7.50
2019-04-03T20:55:08.507Z,7.52
2019-04-03T20:57:37.709Z,7.30
2019-04-03T21:00:12.142Z,7.23
2019-04-03T21:02:42.230Z,7.42
2019-04-03T21:05:11.561Z,7.39
2019-04-03T21:07:40.801Z,7.30
2019-04-03T21:10:10.232Z,7.34
2019-04-03T21:12:40.398Z,7.41
2019-04-03T21:15:13.385Z,7.36
2019-04-03T21:17:40.780Z,7.28
2019-04-03T21:20:10.304Z,7.38
2019-04-03T21:22:39.448Z,7.46
2019-04-03T21:25:09.395Z,7.40
2019-04-03T21:27:40.181Z,7.28
2019-04-03T21:30:11.263Z,7.16
2019-04-03T21:32:40.476Z,7.29
2019-04-03T21:35:09.715Z,7.33
2019-04-03T21:37:40.482Z,7.18
2019-04-03T21:40:10.329Z,7.21
2019-04-03T21:42:39.534Z,7.17
2019-04-03T21:45:08.777Z,7.13
2019-04-03T21:47:37.947Z,7.10
2019-04-03T21:50:07.654Z,7.13
2019-04-03T21:52:36.849Z,7.13
2019-04-03T21:55:07.839Z,7.18
2019-04-03T21:57:38.398Z,7.22
2019-04-03T22:00:13.004Z,7.11
2019-04-03T22:02:40.611Z,7.13
2019-04-03T22:05:10.828Z,7.26
2019-04-03T22:07:40.055Z,7.24
2019-04-03T22:10:09.818Z,7.12
2019-04-03T22:12:39.033Z,7.18
2019-04-03T22:15:08.762Z,7.04
2019-04-03T22:17:37.930Z,7.10
2019-04-03T22:20:07.348Z,7.05
2019-04-03T22:22:36.538Z,6.99
2019-04-03T22:25:08.539Z,7.13
2019-04-03T22:27:36.925Z,7.01
2019-04-03T22:30:06.756Z,6.94
2019-04-03T22:32:36.134Z,6.89
2019-04-03T22:35:06.755Z,6.90
2019-04-03T22:37:35.991Z,6.78
2019-04-03T22:40:06.022Z,6.80
2019-04-03T22:42:35.197Z,6.88
2019-04-03T22:45:05.238Z,6.87
2019-04-03T22:47:34.715Z,6.80
2019-04-03T22:50:05.583Z,6.95
2019-04-03T22:52:35.059Z,6.88
2019-04-03T22:55:05.872Z,6.89
2019-04-03T22:57:35.061Z,7.00
2019-04-03T23:00:06.711Z,7.04
2019-04-03T23:02:35.903Z,7.12
2019-04-03T23:05:06.751Z,7.08
2019-04-03T23:07:35.923Z,7.12
2019-04-03T23:10:06.670Z,7.13
2019-04-03T23:12:35.868Z,7.04
2019-04-03T23:15:08.519Z,7.13
2019-04-03T23:17:37.310Z,7.11
2019-04-03T23:20:06.742Z,6.99
2019-04-03T23:22:35.970Z,7.06
2019-04-03T23:25:06.534Z,7.03
2019-04-03T23:27:35.701Z,7.01
2019-04-03T23:30:09.941Z,7.06
2019-04-03T23:32:37.911Z,6.89
2019-04-03T23:35:07.241Z,6.85
2019-04-03T23:37:36.422Z,6.78
2019-04-03T23:40:06.747Z,6.76
2019-04-03T23:42:37.826Z,6.74
2019-04-03T23:45:08.467Z,6.68
2019-04-03T23:47:37.641Z,6.85
2019-04-03T23:50:10.152Z,6.78
2019-04-03T23:52:39.320Z,6.40
2019-04-03T23:55:08.807Z,6.83
2019-04-03T23:57:40.386Z,6.70
